EZY507H EGGP-EGAA
Flight info
| Callsign | EZY507H |
|---|---|
| Flight time | 0h 32m |
| Altitude | 24000 |
| Route | WAL M146 IPSET P6 BELZU |
| Aircraft | A320/M-SDE2E3FGHIJ1RWXYZ/LB1 |
Departure
| Time | 2026-04-29 14:21 |
|---|---|
| Airport | Liverpool John Lennon Airport (EGGP) |
Arrival
| Time | 2026-04-29 14:53 |
|---|---|
| Airport | Belfast International Airport (EGAA) |
| Time | Latitude | Longitude | Altitude | Speed | Heading |
|---|---|---|---|---|---|
| 2026-04-29 13:48 | 53.33666 | -2.85514 | 89 ft | 0 kts | 356° |
| 2026-04-29 14:12 | 53.33656 | -2.85512 | 86 ft | 4 kts | 359° |
| 2026-04-29 14:12 | 53.33633 | -2.85511 | 87 ft | 4 kts | 4° |
| 2026-04-29 14:13 | 53.33615 | -2.85525 | 91 ft | 4 kts | 73° |
| 2026-04-29 14:13 | 53.33611 | -2.85569 | 90 ft | 4 kts | 86° |
| 2026-04-29 14:13 | 53.33609 | -2.85609 | 89 ft | 2 kts | 86° |
| 2026-04-29 14:13 | 53.33609 | -2.85611 | 89 ft | 0 kts | 86° |
| 2026-04-29 14:16 | 53.33610 | -2.85595 | 90 ft | 3 kts | 86° |
| 2026-04-29 14:16 | 53.33612 | -2.85545 | 90 ft | 8 kts | 91° |
| 2026-04-29 14:16 | 53.33561 | -2.85509 | 89 ft | 10 kts | 175° |
| 2026-04-29 14:16 | 53.33504 | -2.85549 | 87 ft | 11 kts | 258° |
| 2026-04-29 14:17 | 53.33497 | -2.85705 | 87 ft | 14 kts | 264° |
| 2026-04-29 14:17 | 53.33488 | -2.85865 | 84 ft | 13 kts | 265° |
| 2026-04-29 14:17 | 53.33481 | -2.86015 | 88 ft | 13 kts | 265° |
| 2026-04-29 14:17 | 53.33475 | -2.86158 | 84 ft | 12 kts | 265° |
| 2026-04-29 14:18 | 53.33469 | -2.86290 | 87 ft | 11 kts | 265° |
| 2026-04-29 14:18 | 53.33462 | -2.86417 | 84 ft | 11 kts | 265° |
| 2026-04-29 14:18 | 53.33456 | -2.86551 | 80 ft | 14 kts | 266° |
| 2026-04-29 14:18 | 53.33426 | -2.86700 | 72 ft | 14 kts | 222° |
| 2026-04-29 14:19 | 53.33342 | -2.86717 | 73 ft | 13 kts | 155° |
| 2026-04-29 14:19 | 53.33287 | -2.86651 | 76 ft | 6 kts | 134° |
| 2026-04-29 14:19 | 53.33287 | -2.86620 | 77 ft | 0 kts | 83° |
| 2026-04-29 14:19 | 53.33287 | -2.86621 | 77 ft | 0 kts | 83° |
| 2026-04-29 14:20 | 53.33287 | -2.86620 | 77 ft | 0 kts | 83° |
| 2026-04-29 14:20 | 53.33290 | -2.86569 | 76 ft | 15 kts | 85° |
| 2026-04-29 14:21 | 53.33319 | -2.85943 | 77 ft | 89 kts | 85° |
| 2026-04-29 14:21 | 53.33381 | -2.84574 | 142 ft | 139 kts | 86° |
| 2026-04-29 14:21 | 53.33458 | -2.83012 | 931 ft | 134 kts | 87° |
| 2026-04-29 14:21 | 53.33548 | -2.81423 | 1574 ft | 146 kts | 86° |
| 2026-04-29 14:22 | 53.33674 | -2.79609 | 2035 ft | 169 kts | 80° |
| 2026-04-29 14:22 | 53.34104 | -2.77617 | 2469 ft | 197 kts | 65° |
| 2026-04-29 14:22 | 53.35047 | -2.75745 | 2975 ft | 229 kts | 39° |
| 2026-04-29 14:22 | 53.36673 | -2.74990 | 3652 ft | 262 kts | 1° |
| 2026-04-29 14:23 | 53.38435 | -2.76081 | 4512 ft | 285 kts | 325° |
| 2026-04-29 14:23 | 53.39679 | -2.78734 | 5385 ft | 298 kts | 295° |
| 2026-04-29 14:23 | 53.40232 | -2.82073 | 6342 ft | 299 kts | 271° |
| 2026-04-29 14:23 | 53.40205 | -2.85505 | 7322 ft | 299 kts | 264° |
| 2026-04-29 14:24 | 53.40103 | -2.89007 | 8258 ft | 303 kts | 264° |
| 2026-04-29 14:24 | 53.39977 | -2.92556 | 9178 ft | 307 kts | 263° |
| 2026-04-29 14:24 | 53.39839 | -2.96152 | 10091 ft | 311 kts | 263° |
| 2026-04-29 14:24 | 53.39824 | -2.99850 | 10675 ft | 330 kts | 276° |
| 2026-04-29 14:25 | 53.40568 | -3.03606 | 11038 ft | 352 kts | 302° |
| 2026-04-29 14:25 | 53.42067 | -3.06897 | 11707 ft | 359 kts | 311° |
| 2026-04-29 14:25 | 53.43659 | -3.10169 | 12481 ft | 365 kts | 309° |
| 2026-04-29 14:25 | 53.45198 | -3.13591 | 13255 ft | 370 kts | 307° |
| 2026-04-29 14:26 | 53.46705 | -3.17144 | 14014 ft | 376 kts | 306° |
| 2026-04-29 14:26 | 53.47716 | -3.19592 | 14482 ft | 380 kts | 306° |
| 2026-04-29 14:26 | 53.49220 | -3.23268 | 15154 ft | 384 kts | 306° |
| 2026-04-29 14:26 | 53.50733 | -3.26966 | 15947 ft | 381 kts | 306° |
| 2026-04-29 14:27 | 53.52229 | -3.30602 | 16953 ft | 375 kts | 307° |
| 2026-04-29 14:27 | 53.53706 | -3.34165 | 18001 ft | 367 kts | 307° |
| 2026-04-29 14:27 | 53.55183 | -3.37705 | 18645 ft | 374 kts | 307° |
| 2026-04-29 14:28 | 53.58222 | -3.44959 | 19771 ft | 383 kts | 307° |
| 2026-04-29 14:28 | 53.59765 | -3.48646 | 20370 ft | 387 kts | 307° |
| 2026-04-29 14:28 | 53.61318 | -3.52370 | 20969 ft | 390 kts | 306° |
| 2026-04-29 14:28 | 53.62883 | -3.56135 | 21564 ft | 393 kts | 306° |
| 2026-04-29 14:29 | 53.64455 | -3.59928 | 22154 ft | 397 kts | 306° |
| 2026-04-29 14:29 | 53.66043 | -3.63764 | 22777 ft | 400 kts | 306° |
| 2026-04-29 14:29 | 53.67645 | -3.67632 | 23294 ft | 405 kts | 307° |
| 2026-04-29 14:29 | 53.69271 | -3.71559 | 23814 ft | 410 kts | 306° |
| 2026-04-29 14:30 | 53.70906 | -3.75510 | 24130 ft | 411 kts | 306° |
| 2026-04-29 14:30 | 53.72544 | -3.79473 | 24292 ft | 412 kts | 306° |
| 2026-04-29 14:30 | 53.74157 | -3.83394 | 24337 ft | 412 kts | 306° |
| 2026-04-29 14:30 | 53.75784 | -3.87376 | 24340 ft | 412 kts | 306° |
| 2026-04-29 14:31 | 53.77409 | -3.91366 | 24339 ft | 411 kts | 306° |
| 2026-04-29 14:31 | 53.79029 | -3.95345 | 24345 ft | 411 kts | 306° |
| 2026-04-29 14:31 | 53.80651 | -3.99323 | 24345 ft | 411 kts | 306° |
| 2026-04-29 14:31 | 53.82278 | -4.03308 | 24345 ft | 411 kts | 306° |
| 2026-04-29 14:32 | 53.83900 | -4.07286 | 24345 ft | 411 kts | 306° |
| 2026-04-29 14:32 | 53.85524 | -4.11278 | 24344 ft | 411 kts | 306° |
| 2026-04-29 14:32 | 53.87149 | -4.15276 | 24345 ft | 411 kts | 306° |
| 2026-04-29 14:32 | 53.88766 | -4.19264 | 24363 ft | 411 kts | 306° |
| 2026-04-29 14:33 | 53.90372 | -4.23271 | 24359 ft | 411 kts | 306° |
| 2026-04-29 14:33 | 53.91968 | -4.27293 | 24327 ft | 411 kts | 306° |
| 2026-04-29 14:33 | 53.93560 | -4.31323 | 24337 ft | 410 kts | 306° |
| 2026-04-29 14:33 | 53.95154 | -4.35341 | 24354 ft | 410 kts | 306° |
| 2026-04-29 14:34 | 53.96763 | -4.39337 | 24362 ft | 409 kts | 306° |
| 2026-04-29 14:34 | 53.98358 | -4.43261 | 24365 ft | 409 kts | 306° |
| 2026-04-29 14:34 | 53.99976 | -4.47229 | 24361 ft | 408 kts | 306° |
| 2026-04-29 14:34 | 54.01610 | -4.51184 | 24363 ft | 407 kts | 310° |
| 2026-04-29 14:35 | 54.03469 | -4.54798 | 24370 ft | 405 kts | 315° |
| 2026-04-29 14:35 | 54.05385 | -4.58317 | 24362 ft | 406 kts | 315° |
| 2026-04-29 14:35 | 54.07297 | -4.61858 | 24370 ft | 406 kts | 315° |
| 2026-04-29 14:35 | 54.09204 | -4.65410 | 24361 ft | 406 kts | 315° |
| 2026-04-29 14:36 | 54.11106 | -4.68960 | 24366 ft | 406 kts | 315° |
| 2026-04-29 14:36 | 54.13012 | -4.72525 | 24366 ft | 406 kts | 315° |
| 2026-04-29 14:36 | 54.14909 | -4.76082 | 24367 ft | 406 kts | 315° |
| 2026-04-29 14:36 | 54.16810 | -4.79647 | 24369 ft | 406 kts | 315° |
| 2026-04-29 14:37 | 54.18712 | -4.83215 | 24374 ft | 405 kts | 315° |
| 2026-04-29 14:37 | 54.20604 | -4.86772 | 24377 ft | 403 kts | 315° |
| 2026-04-29 14:37 | 54.22463 | -4.90271 | 24161 ft | 394 kts | 315° |
| 2026-04-29 14:37 | 54.24272 | -4.93674 | 23774 ft | 390 kts | 315° |
| 2026-04-29 14:38 | 54.26113 | -4.97134 | 23319 ft | 387 kts | 315° |
| 2026-04-29 14:38 | 54.27889 | -5.00480 | 22862 ft | 384 kts | 315° |
| 2026-04-29 14:38 | 54.29681 | -5.03857 | 22419 ft | 382 kts | 315° |
| 2026-04-29 14:38 | 54.31458 | -5.07218 | 21988 ft | 380 kts | 315° |
| 2026-04-29 14:39 | 54.33223 | -5.10567 | 21562 ft | 378 kts | 315° |
| 2026-04-29 14:39 | 54.34979 | -5.13902 | 21161 ft | 375 kts | 315° |
| 2026-04-29 14:39 | 54.36724 | -5.17221 | 20762 ft | 373 kts | 315° |
| 2026-04-29 14:39 | 54.38459 | -5.20528 | 20358 ft | 371 kts | 315° |
| 2026-04-29 14:40 | 54.40183 | -5.23821 | 19932 ft | 370 kts | 315° |
| 2026-04-29 14:40 | 54.41900 | -5.27103 | 19537 ft | 368 kts | 315° |
| 2026-04-29 14:40 | 54.43609 | -5.30367 | 19172 ft | 367 kts | 315° |
| 2026-04-29 14:40 | 54.45314 | -5.33623 | 18797 ft | 365 kts | 315° |
| 2026-04-29 14:41 | 54.47035 | -5.36821 | 18409 ft | 363 kts | 316° |
| 2026-04-29 14:41 | 54.48765 | -5.39973 | 18015 ft | 362 kts | 313° |
| 2026-04-29 14:41 | 54.50051 | -5.43649 | 17527 ft | 359 kts | 289° |
| 2026-04-29 14:41 | 54.50522 | -5.47761 | 16862 ft | 354 kts | 271° |
| 2026-04-29 14:42 | 54.50626 | -5.51975 | 16196 ft | 351 kts | 269° |
| 2026-04-29 14:42 | 54.50694 | -5.56166 | 15579 ft | 348 kts | 269° |
| 2026-04-29 14:42 | 54.50761 | -5.60311 | 14992 ft | 345 kts | 269° |
| 2026-04-29 14:42 | 54.50828 | -5.64422 | 14426 ft | 342 kts | 269° |
| 2026-04-29 14:43 | 54.50898 | -5.68484 | 13819 ft | 339 kts | 269° |
| 2026-04-29 14:43 | 54.50968 | -5.72516 | 13205 ft | 335 kts | 269° |
| 2026-04-29 14:43 | 54.51037 | -5.76502 | 12600 ft | 331 kts | 269° |
| 2026-04-29 14:43 | 54.51102 | -5.80462 | 12207 ft | 329 kts | 269° |
| 2026-04-29 14:44 | 54.51165 | -5.84381 | 11885 ft | 326 kts | 269° |
| 2026-04-29 14:44 | 54.51228 | -5.88271 | 11549 ft | 324 kts | 269° |
| 2026-04-29 14:44 | 54.51290 | -5.92132 | 11216 ft | 322 kts | 269° |
| 2026-04-29 14:44 | 54.51351 | -5.95972 | 10876 ft | 319 kts | 269° |
| 2026-04-29 14:45 | 54.51409 | -5.99782 | 10513 ft | 318 kts | 269° |
| 2026-04-29 14:45 | 54.51464 | -6.03560 | 10126 ft | 313 kts | 269° |
| 2026-04-29 14:45 | 54.51517 | -6.07293 | 9469 ft | 310 kts | 269° |
| 2026-04-29 14:45 | 54.51567 | -6.10962 | 8840 ft | 306 kts | 269° |
| 2026-04-29 14:46 | 54.51605 | -6.14567 | 8181 ft | 303 kts | 267° |
| 2026-04-29 14:46 | 54.51553 | -6.18183 | 7655 ft | 302 kts | 264° |
| 2026-04-29 14:46 | 54.51438 | -6.21763 | 7300 ft | 298 kts | 263° |
| 2026-04-29 14:46 | 54.51300 | -6.25310 | 6907 ft | 296 kts | 263° |
| 2026-04-29 14:47 | 54.51157 | -6.28840 | 6499 ft | 295 kts | 263° |
| 2026-04-29 14:47 | 54.51020 | -6.32350 | 6089 ft | 292 kts | 263° |
| 2026-04-29 14:47 | 54.50893 | -6.35825 | 5682 ft | 290 kts | 263° |
| 2026-04-29 14:47 | 54.50805 | -6.39288 | 5267 ft | 290 kts | 271° |
| 2026-04-29 14:48 | 54.51324 | -6.42585 | 4683 ft | 287 kts | 300° |
| 2026-04-29 14:48 | 54.52649 | -6.45098 | 3991 ft | 283 kts | 329° |
| 2026-04-29 14:48 | 54.54398 | -6.46571 | 3686 ft | 275 kts | 339° |
| 2026-04-29 14:48 | 54.56099 | -6.47879 | 3482 ft | 257 kts | 345° |
| 2026-04-29 14:49 | 54.57745 | -6.48065 | 3272 ft | 224 kts | 26° |
| 2026-04-29 14:49 | 54.58901 | -6.46671 | 3080 ft | 189 kts | 64° |
| 2026-04-29 14:49 | 54.59469 | -6.44790 | 2866 ft | 170 kts | 72° |
| 2026-04-29 14:49 | 54.59957 | -6.43012 | 2637 ft | 164 kts | 72° |
| 2026-04-29 14:50 | 54.60435 | -6.41258 | 2407 ft | 159 kts | 71° |
| 2026-04-29 14:50 | 54.60896 | -6.39565 | 2206 ft | 153 kts | 70° |
| 2026-04-29 14:50 | 54.61341 | -6.37923 | 2012 ft | 150 kts | 70° |
| 2026-04-29 14:50 | 54.61782 | -6.36295 | 1820 ft | 149 kts | 70° |
| 2026-04-29 14:51 | 54.62219 | -6.34714 | 1600 ft | 141 kts | 69° |
| 2026-04-29 14:51 | 54.62643 | -6.33234 | 1372 ft | 136 kts | 69° |
| 2026-04-29 14:51 | 54.63013 | -6.31754 | 1227 ft | 134 kts | 71° |
| 2026-04-29 14:51 | 54.63413 | -6.30295 | 1046 ft | 135 kts | 70° |
| 2026-04-29 14:52 | 54.63801 | -6.28844 | 937 ft | 133 kts | 69° |
| 2026-04-29 14:52 | 54.64182 | -6.27378 | 783 ft | 134 kts | 69° |
| 2026-04-29 14:52 | 54.64582 | -6.25933 | 604 ft | 133 kts | 67° |
| 2026-04-29 14:52 | 54.64971 | -6.24489 | 426 ft | 133 kts | 69° |
| 2026-04-29 14:53 | 54.65354 | -6.23051 | 284 ft | 129 kts | 69° |
| 2026-04-29 14:53 | 54.65662 | -6.21896 | 273 ft | 75 kts | 65° |
| 2026-04-29 14:53 | 54.65803 | -6.21380 | 272 ft | 16 kts | 64° |
| 2026-04-29 14:53 | 54.65866 | -6.21326 | 272 ft | 11 kts | 350° |
| 2026-04-29 14:54 | 54.65932 | -6.21375 | 274 ft | 8 kts | 333° |
| 2026-04-29 14:54 | 54.65967 | -6.21429 | 272 ft | 6 kts | 294° |
| 2026-04-29 14:54 | 54.65958 | -6.21493 | 272 ft | 5 kts | 244° |
| 2026-04-29 14:54 | 54.65972 | -6.21560 | 274 ft | 10 kts | 326° |
| 2026-04-29 14:55 | 54.66031 | -6.21609 | 272 ft | 9 kts | 335° |
| 2026-04-29 14:55 | 54.66072 | -6.21641 | 275 ft | 3 kts | 335° |
| 2026-04-29 14:55 | 54.66081 | -6.21648 | 273 ft | 1 kts | 335° |
| 2026-04-29 14:55 | 54.66082 | -6.21649 | 273 ft | 0 kts | 335° |